Time;durP1;ratioP1;P1;durP2;ratioP2;P2;SDS_P1;SDS_P2;PMS_P1;PMS_P2;Temp;Humidity;BMP_temperature;BMP_pressure;BME280_temperature;BME280_humidity;BME280_pressure;Samples;Min_cycle;Max_cycle;Signal;HPM_P1;HPM_P2
2021/12/30 00:02:20;;;;;;;55.70;23.40;;;;;;;-3.83;82.83;101113.86;105128;1274;72347;-71
2021/12/30 00:04:49;;;;;;;60.10;24.60;;;;;;;-3.85;83.24;101112.17;105380;1272;62634;-73
2021/12/30 00:07:18;;;;;;;51.70;23.50;;;;;;;-3.76;83.38;101124.02;105021;1274;61674;-75
2021/12/30 00:09:48;;;;;;;61.90;24.50;;;;;;;-3.75;83.08;101127.41;105116;1270;72434;-71
2021/12/30 00:12:17;;;;;;;53.90;22.80;;;;;;;-3.69;82.93;101130.27;105071;1272;71434;-71
2021/12/30 00:14:46;;;;;;;59.80;24.10;;;;;;;-3.67;82.71;101126.52;105009;1270;69190;-71
2021/12/30 00:17:15;;;;;;;46.20;22.40;;;;;;;-3.69;82.56;101130.44;104770;1274;70434;-71
2021/12/30 00:19:44;;;;;;;55.50;23.80;;;;;;;-3.71;82.54;101134.19;104858;1272;59793;-72
2021/12/30 00:22:13;;;;;;;54.30;23.40;;;;;;;-3.72;82.53;101134.73;104926;1274;58920;-72
2021/12/30 00:24:42;;;;;;;54.70;22.70;;;;;;;-3.72;82.54;101136.26;104917;1270;71112;-72
2021/12/30 00:27:11;;;;;;;61.00;23.90;;;;;;;-3.80;82.78;101136.48;104926;1274;70725;-71
2021/12/30 00:29:40;;;;;;;63.10;23.20;;;;;;;-3.80;83.00;101140.05;104936;1275;69184;-73
2021/12/30 00:32:09;;;;;;;47.60;22.90;;;;;;;-3.84;82.75;101136.84;104851;1273;72672;-75
2021/12/30 00:34:38;;;;;;;63.50;25.20;;;;;;;-3.90;83.10;101136.38;105001;1271;59218;-73
2021/12/30 00:37:07;;;;;;;56.80;24.20;;;;;;;-3.90;83.33;101133.48;104815;1272;59648;-72
2021/12/30 00:39:36;;;;;;;57.30;24.00;;;;;;;-3.89;83.11;101133.13;104967;1274;71217;-74
2021/12/30 00:42:08;;;;;;;53.00;21.10;;;;;;;-3.88;82.70;101133.98;105335;1274;69515;-73
2021/12/30 00:44:37;;;;;;;60.30;23.70;;;;;;;-3.84;82.63;101133.45;106660;1274;70228;-74
2021/12/30 00:47:06;;;;;;;55.10;24.40;;;;;;;-3.84;82.78;101132.59;104896;1272;71636;-75
2021/12/30 00:49:35;;;;;;;57.20;23.10;;;;;;;-3.82;82.73;101132.57;104889;1270;58963;-71
2021/12/30 00:52:04;;;;;;;60.90;24.00;;;;;;;-3.81;83.13;101131.55;104955;1271;58938;-71
2021/12/30 00:54:34;;;;;;;53.50;21.90;;;;;;;-3.75;82.54;101135.25;104955;1271;72762;-72
2021/12/30 00:57:03;;;;;;;52.60;20.20;;;;;;;-3.76;82.68;101130.16;104925;1274;73138;-71
2021/12/30 00:59:32;;;;;;;51.20;21.00;;;;;;;-3.75;82.44;101134.56;104904;1273;69034;-74
2021/12/30 01:02:01;;;;;;;52.60;22.00;;;;;;;-3.71;82.58;101139.66;104942;1272;72462;-72
2021/12/30 01:04:30;;;;;;;55.60;21.70;;;;;;;-3.72;82.90;101139.83;104967;1273;60258;-73
2021/12/30 01:06:59;;;;;;;57.80;23.20;;;;;;;-3.74;82.63;101143.26;104959;1274;61554;-70
2021/12/30 01:09:28;;;;;;;55.00;23.70;;;;;;;-3.73;82.49;101141.54;104902;1272;71966;-71
2021/12/30 01:11:58;;;;;;;55.90;23.60;;;;;;;-3.73;82.87;101144.94;104955;1273;73939;-70
2021/12/30 01:14:30;;;;;;;54.70;23.20;;;;;;;-3.78;82.83;101146.50;105035;1272;68446;-70
2021/12/30 01:17:12;;;;;;;56.50;22.50;;;;;;;-3.77;82.80;101148.55;104893;1274;71235;-72
2021/12/30 01:19:44;;;;;;;49.00;22.00;;;;;;;-3.77;82.47;101150.42;104873;1273;58944;-73
2021/12/30 01:22:27;;;;;;;55.70;24.10;;;;;;;-3.88;82.84;101152.02;104904;1273;60276;-71
2021/12/30 01:24:57;;;;;;;60.00;24.10;;;;;;;-3.87;83.68;101151.84;104881;1271;72893;-71
2021/12/30 01:27:26;;;;;;;64.10;26.00;;;;;;;-3.82;83.30;101149.60;104918;1270;71173;-73
2021/12/30 01:29:55;;;;;;;55.70;23.80;;;;;;;-3.80;82.98;101155.20;104971;1274;68075;-72
2021/12/30 01:32:24;;;;;;;58.50;23.80;;;;;;;-3.83;83.55;101156.06;104975;1272;72341;-75
2021/12/30 01:34:53;;;;;;;65.20;24.50;;;;;;;-3.80;83.43;101157.59;104899;1272;59711;-75
2021/12/30 01:37:23;;;;;;;57.40;23.80;;;;;;;-3.77;82.75;101156.02;104838;1273;58829;-74
2021/12/30 01:39:53;;;;;;;59.50;24.20;;;;;;;-3.83;82.50;101156.40;104961;1270;72719;-75
2021/12/30 01:42:23;;;;;;;57.00;25.00;;;;;;;-3.80;82.66;101156.56;104910;1270;71000;-75
2021/12/30 01:44:52;;;;;;;55.80;23.80;;;;;;;-3.92;82.29;101157.98;104907;1272;70865;-75
2021/12/30 01:47:23;;;;;;;58.60;23.40;;;;;;;-3.92;82.45;101154.77;104879;1273;74188;-74
2021/12/30 01:49:53;;;;;;;56.80;24.10;;;;;;;-4.03;83.03;101153.80;104896;1270;60572;-75
2021/12/30 01:52:22;;;;;;;55.80;24.40;;;;;;;-3.99;83.07;101148.86;104868;1271;60292;-75
2021/12/30 01:54:51;;;;;;;52.70;23.10;;;;;;;-3.97;82.68;101150.54;104933;1272;71664;-75
2021/12/30 01:57:21;;;;;;;51.70;22.40;;;;;;;-3.97;82.91;101159.55;104910;1272;69582;-75
2021/12/30 01:59:51;;;;;;;50.10;21.70;;;;;;;-4.03;83.00;101164.69;105046;1272;71537;-75
2021/12/30 02:02:20;;;;;;;53.00;21.30;;;;;;;-3.95;83.37;101166.19;104911;1274;74722;-75
2021/12/30 02:04:52;;;;;;;49.50;21.90;;;;;;;-4.02;82.55;101164.85;104965;1273;61581;-73
2021/12/30 02:07:21;;;;;;;43.90;21.10;;;;;;;-4.08;82.87;101163.02;104600;1276;60546;-72
2021/12/30 02:09:50;;;;;;;50.80;19.50;;;;;;;-4.00;82.99;101163.14;104660;1274;72909;-73
2021/12/30 02:12:19;;;;;;;48.10;19.90;;;;;;;-3.95;82.51;101164.48;104661;1274;72482;-72
2021/12/30 02:14:48;;;;;;;39.20;18.10;;;;;;;-3.98;82.79;101164.84;104582;1272;67655;-70
2021/12/30 02:17:18;;;;;;;44.60;18.80;;;;;;;-3.91;82.66;101168.04;104529;1275;71929;-72
2021/12/30 02:19:47;;;;;;;41.20;18.30;;;;;;;-3.89;82.24;101171.93;104777;1273;59555;-73
2021/12/30 02:22:16;;;;;;;50.90;21.00;;;;;;;-3.95;82.34;101170.44;104701;1273;60947;-70
2021/12/30 02:24:47;;;;;;;43.70;18.40;;;;;;;-3.95;82.46;101170.95;104775;1272;73337;-70
2021/12/30 02:27:17;;;;;;;45.50;20.50;;;;;;;-4.00;82.30;101178.30;104768;1270;70247;-70
2021/12/30 02:29:46;;;;;;;45.00;19.60;;;;;;;-3.94;82.60;101178.77;104695;1269;68744;-72
2021/12/30 02:32:15;;;;;;;45.60;19.10;;;;;;;-3.86;82.45;101176.69;104675;1273;74621;-70
2021/12/30 02:34:44;;;;;;;44.10;19.00;;;;;;;-3.96;81.92;101168.91;104764;1271;59000;-70
2021/12/30 02:37:18;;;;;;;50.70;21.30;;;;;;;-3.95;81.89;101165.00;104839;1274;57818;-71
2021/12/30 02:39:54;;;;;;;54.10;22.60;;;;;;;-4.04;82.16;101171.48;104869;1270;73595;-71
2021/12/30 02:42:25;;;;;;;51.90;22.50;;;;;;;-4.11;83.00;101168.64;104701;1273;71989;-71
2021/12/30 02:44:54;;;;;;;51.90;22.70;;;;;;;-4.16;83.32;101169.02;104680;1275;70616;-71
2021/12/30 02:47:23;;;;;;;54.10;25.20;;;;;;;-4.11;82.98;101173.90;104706;1275;71659;-72
2021/12/30 02:49:52;;;;;;;52.50;21.40;;;;;;;-4.13;82.92;101177.16;104653;1272;59467;-71
2021/12/30 02:52:21;;;;;;;55.70;23.10;;;;;;;-4.17;83.31;101187.20;104968;1275;58993;-72
2021/12/30 02:54:50;;;;;;;44.00;21.30;;;;;;;-4.10;83.57;101192.61;104763;1270;71136;-72
2021/12/30 02:57:19;;;;;;;49.50;22.90;;;;;;;-4.03;82.68;101189.88;105017;1273;69544;-70
2021/12/30 02:59:48;;;;;;;55.60;24.00;;;;;;;-4.06;82.66;101197.03;105368;1273;67901;-73
2021/12/30 03:02:17;;;;;;;47.60;22.20;;;;;;;-4.08;82.35;101197.73;104555;1274;72728;-70
2021/12/30 03:04:46;;;;;;;58.40;24.70;;;;;;;-4.10;82.05;101200.28;104595;1273;60601;-70
2021/12/30 03:07:18;;;;;;;53.10;23.40;;;;;;;-4.25;82.48;101200.00;104661;1273;61808;-70
2021/12/30 03:09:47;;;;;;;49.40;21.10;;;;;;;-4.37;82.93;101199.02;104665;1275;73854;-70
2021/12/30 03:12:16;;;;;;;55.80;25.70;;;;;;;-4.39;83.28;101197.16;104803;1273;71853;-70
2021/12/30 03:14:49;;;;;;;52.20;22.60;;;;;;;-4.39;83.22;101202.08;104814;1271;69719;-71
2021/12/30 03:17:18;;;;;;;61.10;26.00;;;;;;;-4.35;82.89;101203.27;104666;1271;74672;-70
2021/12/30 03:19:46;;;;;;;56.50;24.40;;;;;;;-4.44;83.79;101201.25;104735;1273;61802;-70
2021/12/30 03:22:16;;;;;;;54.20;23.30;;;;;;;-4.50;83.25;101203.48;104839;1271;60317;-70
2021/12/30 03:24:45;;;;;;;55.90;24.40;;;;;;;-4.49;82.82;101203.81;104866;1273;74079;-72
2021/12/30 03:27:13;;;;;;;61.50;24.00;;;;;;;-4.46;83.19;101208.23;104903;1274;73107;-70
2021/12/30 03:29:43;;;;;;;58.90;25.00;;;;;;;-4.51;83.18;101206.55;104898;1271;70958;-71
2021/12/30 03:32:12;;;;;;;59.20;24.40;;;;;;;-4.41;83.20;101204.83;104748;1273;73723;-72
2021/12/30 03:34:41;;;;;;;56.50;25.90;;;;;;;-4.41;83.34;101210.08;104889;1274;60083;-72
2021/12/30 03:37:10;;;;;;;55.80;23.60;;;;;;;-4.49;82.88;101210.80;104894;1273;61672;-72
2021/12/30 03:39:40;;;;;;;59.80;27.60;;;;;;;-4.46;82.98;101214.69;104946;1271;74236;-72
2021/12/30 03:42:09;;;;;;;57.40;23.50;;;;;;;-4.52;83.19;101216.07;104941;1274;70090;-71
2021/12/30 03:44:38;;;;;;;59.80;24.00;;;;;;;-4.42;82.89;101219.29;104978;1270;68766;-71
2021/12/30 03:47:12;;;;;;;51.60;23.20;;;;;;;-4.40;82.91;101226.58;105012;1270;70201;-73
2021/12/30 03:49:46;;;;;;;55.10;25.00;;;;;;;-4.43;82.76;101230.31;104974;1270;59803;-73
2021/12/30 03:52:23;;;;;;;59.70;25.00;;;;;;;-4.43;83.10;101234.92;105038;1273;62354;-74
2021/12/30 03:54:54;;;;;;;62.10;25.90;;;;;;;-4.44;82.75;101235.77;104998;1274;71348;-72
2021/12/30 03:57:24;;;;;;;58.60;25.50;;;;;;;-4.44;83.06;101236.10;105046;1271;70340;-73
2021/12/30 03:59:53;;;;;;;61.10;25.50;;;;;;;-4.46;83.14;101234.92;104991;1270;69717;-72
2021/12/30 04:02:22;;;;;;;57.00;24.20;;;;;;;-4.43;83.43;101241.89;104970;1269;74261;-72
2021/12/30 04:04:51;;;;;;;55.40;24.80;;;;;;;-4.42;82.72;101244.60;104911;1273;59249;-73
2021/12/30 04:07:20;;;;;;;55.90;22.20;;;;;;;-4.39;82.30;101243.58;104747;1274;59714;-71
2021/12/30 04:09:49;;;;;;;56.70;21.20;;;;;;;-4.34;82.22;101246.63;104919;1271;71952;-70
2021/12/30 04:12:19;;;;;;;58.50;23.40;;;;;;;-4.26;82.47;101245.92;104994;1270;70302;-73
2021/12/30 04:14:52;;;;;;;57.80;23.70;;;;;;;-4.27;82.42;101241.84;104975;1270;68648;-74
2021/12/30 04:17:22;;;;;;;55.70;23.50;;;;;;;-4.25;82.16;101244.39;104735;1274;71475;-72
2021/12/30 04:19:51;;;;;;;55.50;23.40;;;;;;;-4.21;81.93;101249.81;104897;1270;61496;-72
2021/12/30 04:22:21;;;;;;;51.20;21.30;;;;;;;-4.19;82.04;101256.63;104958;1270;62650;-72
2021/12/30 04:24:50;;;;;;;51.70;22.20;;;;;;;-4.20;81.59;101263.94;104895;1271;74952;-72
2021/12/30 04:27:19;;;;;;;52.80;20.40;;;;;;;-4.27;81.67;101263.44;104879;1273;70859;-73
2021/12/30 04:29:48;;;;;;;47.70;21.30;;;;;;;-4.27;81.83;101263.27;104820;1273;68123;-72
2021/12/30 04:32:17;;;;;;;49.60;21.10;;;;;;;-4.31;82.11;101266.86;104880;1271;72330;-73
2021/12/30 04:34:46;;;;;;;60.40;24.50;;;;;;;-4.33;82.13;101266.69;104834;1269;58921;-73
2021/12/30 04:37:15;;;;;;;57.20;23.80;;;;;;;-4.40;82.48;101267.23;104856;1270;61377;-73
2021/12/30 04:39:44;;;;;;;59.10;22.30;;;;;;;-4.44;83.12;101275.22;104937;1272;74284;-74
2021/12/30 04:42:13;;;;;;;56.00;22.90;;;;;;;-4.43;82.89;101278.79;104908;1273;73055;-71
2021/12/30 04:44:43;;;;;;;61.50;25.00;;;;;;;-4.40;83.05;101282.02;104953;1270;68791;-73
2021/12/30 04:47:13;;;;;;;60.80;25.80;;;;;;;-4.44;83.12;101284.75;104956;1268;72884;-73
2021/12/30 04:49:43;;;;;;;51.40;22.10;;;;;;;-4.34;82.81;101293.90;104998;1273;59276;-72
2021/12/30 04:52:12;;;;;;;54.20;22.90;;;;;;;-4.35;82.27;101297.48;104987;1269;61179;-73
2021/12/30 04:54:40;;;;;;;52.60;22.80;;;;;;;-4.46;82.74;101301.75;105325;1271;72458;-75
2021/12/30 04:57:10;;;;;;;60.80;26.00;;;;;;;-4.49;82.55;101301.41;105534;1273;73029;-73
2021/12/30 04:59:39;;;;;;;56.70;23.90;;;;;;;-4.47;83.21;101312.30;105010;1274;68002;-73
2021/12/30 05:02:08;;;;;;;61.10;25.90;;;;;;;-4.50;82.93;101313.81;105043;1270;74280;-72
2021/12/30 05:04:38;;;;;;;53.20;19.70;;;;;;;-4.48;83.01;101310.92;105042;1271;61030;-77
2021/12/30 05:07:07;;;;;;;55.30;21.40;;;;;;;-4.44;82.54;101315.86;104954;1271;60168;-74
2021/12/30 05:09:36;;;;;;;52.90;21.80;;;;;;;-4.42;82.63;101317.38;105003;1273;71391;-76
2021/12/30 05:12:07;;;;;;;54.70;22.00;;;;;;;-4.47;83.12;101315.02;105848;1270;70031;-77
2021/12/30 05:14:36;;;;;;;58.90;22.80;;;;;;;-4.49;83.05;101316.36;105513;1270;70110;-79
2021/12/30 05:17:05;;;;;;;54.50;21.70;;;;;;;-4.48;83.27;101316.37;104990;1270;75574;-80
2021/12/30 05:19:34;;;;;;;54.30;22.50;;;;;;;-4.51;83.29;101318.92;104928;1273;62085;-79
2021/12/30 05:22:03;;;;;;;54.50;21.20;;;;;;;-4.46;82.79;101320.96;104918;1274;59453;-79
2021/12/30 05:24:32;;;;;;;51.50;22.00;;;;;;;-4.48;82.68;101322.66;104976;1274;73908;-81
2021/12/30 05:27:02;;;;;;;55.20;22.30;;;;;;;-4.50;82.89;101331.52;104918;1274;71479;-77
2021/12/30 05:29:31;;;;;;;50.50;21.50;;;;;;;-4.51;82.54;101337.11;104932;1270;69737;-80
2021/12/30 05:32:00;;;;;;;58.40;23.20;;;;;;;-4.57;82.65;101341.37;105001;1270;73180;-79
2021/12/30 05:34:33;;;;;;;60.60;24.50;;;;;;;-4.60;83.21;101342.39;104930;1273;59926;-78
2021/12/30 05:37:03;;;;;;;55.30;23.30;;;;;;;-4.64;83.31;101349.02;104893;1273;60111;-80
2021/12/30 05:39:35;;;;;;;67.60;23.80;;;;;;;-4.55;82.85;101352.77;104742;1270;73950;-78
2021/12/30 05:42:05;;;;;;;54.90;22.80;;;;;;;-4.54;82.63;101357.17;104882;1273;70848;-80
2021/12/30 05:44:34;;;;;;;60.60;22.20;;;;;;;-4.63;82.72;101365.33;105046;1273;71553;-80
2021/12/30 05:47:03;;;;;;;64.40;25.30;;;;;;;-4.58;83.29;101369.59;104913;1272;73912;-81
2021/12/30 05:49:32;;;;;;;59.00;23.70;;;;;;;-4.63;83.14;101373.14;104789;1268;59778;-87
2021/12/30 05:52:02;;;;;;;57.00;20.90;;;;;;;-4.71;83.17;101376.71;104708;1273;61761;-85
2021/12/30 05:54:31;;;;;;;61.00;25.90;;;;;;;-4.64;83.57;101382.50;104807;1270;73534;-87
2021/12/30 05:57:00;;;;;;;60.80;24.80;;;;;;;-4.60;83.31;101386.59;104493;1274;72384;-78
2021/12/30 05:59:29;;;;;;;57.30;21.10;;;;;;;-4.58;82.92;101394.73;104788;1271;71264;-80
2021/12/30 06:01:58;;;;;;;58.60;23.70;;;;;;;-4.55;82.87;101406.14;104495;1273;72324;-83
2021/12/30 06:04:27;;;;;;;60.80;25.10;;;;;;;-4.54;82.55;101411.07;104736;1268;59672;-80
2021/12/30 06:06:56;;;;;;;66.40;25.70;;;;;;;-4.48;82.26;101411.25;104738;1271;60998;-81
2021/12/30 06:09:29;;;;;;;62.40;23.90;;;;;;;-4.46;82.67;101414.98;104726;1271;74816;-81
2021/12/30 06:11:57;;;;;;;70.70;26.50;;;;;;;-4.48;82.70;101413.96;104534;1273;72995;-81
2021/12/30 06:14:26;;;;;;;59.30;26.40;;;;;;;-4.47;82.13;101413.45;104777;1269;70159;-81
2021/12/30 06:16:55;;;;;;;55.40;23.40;;;;;;;-4.47;82.18;101411.92;104645;1271;74296;-82
2021/12/30 06:19:24;;;;;;;51.30;20.30;;;;;;;-4.46;81.97;101420.09;104561;1273;61248;-80
2021/12/30 06:21:53;;;;;;;63.90;24.50;;;;;;;-4.48;82.39;101415.83;104736;1270;59639;-81
2021/12/30 06:24:22;;;;;;;68.60;25.00;;;;;;;-4.54;82.30;101422.80;104638;1271;72496;-82
2021/12/30 06:26:51;;;;;;;63.10;27.50;;;;;;;-4.58;82.64;101427.22;104659;1271;70054;-80
2021/12/30 06:29:20;;;;;;;69.80;27.20;;;;;;;-4.51;82.58;101431.47;104616;1273;69919;-78
2021/12/30 06:31:50;;;;;;;68.10;23.90;;;;;;;-4.59;82.35;101435.21;104707;1273;72353;-76
2021/12/30 06:34:19;;;;;;;62.70;25.80;;;;;;;-4.55;82.27;101435.55;104832;1270;60612;-80
2021/12/30 06:36:48;;;;;;;63.40;25.80;;;;;;;-4.52;81.85;101436.56;104728;1271;61710;-80
2021/12/30 06:39:18;;;;;;;63.50;25.70;;;;;;;-4.49;81.75;101443.21;104801;1274;74599;-80
2021/12/30 06:41:47;;;;;;;66.90;24.70;;;;;;;-4.44;82.06;101453.08;104839;1268;70689;-78
2021/12/30 06:44:16;;;;;;;69.10;25.50;;;;;;;-4.34;81.71;101460.58;104777;1269;67919;-81
2021/12/30 06:46:54;;;;;;;67.20;26.70;;;;;;;-4.57;81.84;101459.34;104898;1273;71259;-81
2021/12/30 06:49:25;;;;;;;62.90;24.80;;;;;;;-4.45;81.97;101460.73;104866;1271;62851;-82
2021/12/30 06:51:54;;;;;;;62.20;25.00;;;;;;;-4.40;82.43;101460.05;105133;1270;61067;-79
2021/12/30 06:54:23;;;;;;;65.20;25.20;;;;;;;-4.37;81.63;101458.34;105075;1270;72304;-78
2021/12/30 06:56:55;;;;;;;63.70;25.00;;;;;;;-4.36;81.39;101454.78;105113;1271;70520;-80
2021/12/30 06:59:24;;;;;;;62.50;24.30;;;;;;;-4.29;81.61;101453.09;104936;1270;67892;-79
2021/12/30 07:01:56;;;;;;;60.60;22.80;;;;;;;-4.28;81.78;101459.38;104904;1271;70965;-80
2021/12/30 07:04:26;;;;;;;63.90;25.60;;;;;;;-4.27;81.46;101464.48;105015;1270;62179;-81
2021/12/30 07:06:55;;;;;;;61.70;25.20;;;;;;;-4.21;81.43;101472.66;105033;1273;60288;-82
2021/12/30 07:09:25;;;;;;;61.20;24.30;;;;;;;-4.19;81.30;101479.97;105028;1271;70862;-80
2021/12/30 07:11:54;;;;;;;59.90;22.70;;;;;;;-4.12;81.16;101485.77;104970;1274;70907;-77
2021/12/30 07:14:25;;;;;;;64.80;24.80;;;;;;;-4.24;80.87;101490.67;104849;1272;69467;-75
2021/12/30 07:16:53;;;;;;;64.60;26.00;;;;;;;-4.19;81.09;101496.30;104941;1270;73010;-77
2021/12/30 07:19:23;;;;;;;65.90;27.00;;;;;;;-4.12;81.42;101506.00;104891;1270;59871;-77
2021/12/30 07:21:52;;;;;;;70.90;28.50;;;;;;;-4.05;81.20;101505.16;104857;1270;60620;-78
2021/12/30 07:24:21;;;;;;;65.20;24.80;;;;;;;-4.12;80.97;101496.47;104694;1269;73981;-77
2021/12/30 07:26:51;;;;;;;70.50;27.70;;;;;;;-4.16;80.68;101495.79;104763;1265;68619;-76
2021/12/30 07:29:21;;;;;;;73.00;27.00;;;;;;;-4.16;80.98;101493.56;104767;1271;71434;-76
2021/12/30 07:31:50;;;;;;;66.70;26.00;;;;;;;-4.07;81.10;101495.45;104547;1274;73911;-80
2021/12/30 07:34:19;;;;;;;72.10;28.30;;;;;;;-4.01;81.61;101504.14;104696;1270;59009;-81
2021/12/30 07:36:48;;;;;;;69.10;29.40;;;;;;;-3.96;81.03;101508.55;104701;1273;58882;-84
2021/12/30 07:39:17;;;;;;;79.70;30.10;;;;;;;-3.96;81.13;101512.31;104676;1274;74072;-78
2021/12/30 07:41:47;;;;;;;71.90;27.70;;;;;;;-4.01;80.86;101512.81;104555;1271;72806;-78
2021/12/30 07:44:16;;;;;;;56.90;22.00;;;;;;;-4.13;80.98;101514.51;104882;1271;69603;-74
2021/12/30 07:46:44;;;;;;;70.40;28.50;;;;;;;-4.15;80.95;101512.46;104589;1273;75125;-74
2021/12/30 07:49:14;;;;;;;72.80;27.70;;;;;;;-4.23;81.37;101516.70;104908;1271;60065;-75
2021/12/30 07:51:43;;;;;;;65.10;24.60;;;;;;;-4.38;81.90;101519.40;104953;1269;60925;-73
2021/12/30 07:54:12;;;;;;;61.30;25.10;;;;;;;-4.28;82.08;101523.84;104852;1271;71434;-74
2021/12/30 07:56:41;;;;;;;58.40;24.10;;;;;;;-4.24;81.93;101522.33;104943;1270;70647;-72
2021/12/30 07:59:10;;;;;;;62.20;23.70;;;;;;;-4.24;82.14;101523.85;105133;1268;69598;-70
2021/12/30 08:01:39;;;;;;;61.40;24.30;;;;;;;-4.09;82.58;101519.27;104881;1270;72330;-75
2021/12/30 08:04:08;;;;;;;54.90;21.30;;;;;;;-3.91;81.34;101521.66;104886;1273;58967;-73
2021/12/30 08:06:37;;;;;;;52.20;21.10;;;;;;;-3.80;80.38;101515.19;104817;1271;59652;-70
2021/12/30 08:09:06;;;;;;;68.40;25.30;;;;;;;-3.72;80.33;101517.06;104736;1271;70864;-73
2021/12/30 08:11:36;;;;;;;65.80;27.20;;;;;;;-3.66;80.07;101516.71;104840;1272;70368;-92
2021/12/30 08:14:04;;;;;;;61.00;24.20;;;;;;;-3.70;79.60;101517.23;104693;1275;70476;-74
2021/12/30 08:16:33;;;;;;;55.70;21.50;;;;;;;-3.65;80.15;101520.96;104797;1271;73907;-72
2021/12/30 08:19:03;;;;;;;61.30;21.80;;;;;;;-3.58;79.89;101527.94;104910;1268;62112;-72
2021/12/30 08:21:32;;;;;;;56.30;23.00;;;;;;;-3.56;79.48;101517.05;104947;1270;61714;-72
2021/12/30 08:24:01;;;;;;;59.70;22.10;;;;;;;-3.60;79.84;101521.83;104948;1270;74375;-73
2021/12/30 08:26:30;;;;;;;61.10;22.50;;;;;;;-3.71;80.20;101525.23;104939;1269;72220;-71
2021/12/30 08:28:58;;;;;;;57.30;23.30;;;;;;;-3.66;80.48;101532.21;104802;1272;71958;-77
2021/12/30 08:31:27;;;;;;;62.90;24.60;;;;;;;-3.75;80.39;101542.09;105113;1271;74840;-75
2021/12/30 08:33:57;;;;;;;51.00;19.40;;;;;;;-3.61;80.10;101538.16;104962;1268;62883;-72
2021/12/30 08:36:27;;;;;;;51.20;21.90;;;;;;;-3.70;80.07;101537.48;105275;1270;61068;-81
2021/12/30 08:38:56;;;;;;;48.10;19.70;;;;;;;-3.68;80.60;101537.65;105597;1270;73263;-78
2021/12/30 08:41:27;;;;;;;49.90;20.20;;;;;;;-3.49;79.39;101533.71;105306;1270;69958;-88
2021/12/30 08:43:56;;;;;;;54.40;21.20;;;;;;;-3.42;79.26;101534.58;105182;1269;68636;-79
2021/12/30 08:46:25;;;;;;;57.90;21.70;;;;;;;-3.42;78.76;101536.27;105061;1271;73152;-76
2021/12/30 08:48:54;;;;;;;48.60;19.10;;;;;;;-3.49;78.98;101538.14;104743;1273;62692;-75
2021/12/30 08:51:23;;;;;;;66.40;33.00;;;;;;;-3.60;79.34;101527.44;105025;1267;61720;-68
2021/12/30 08:53:52;;;;;;;51.60;20.00;;;;;;;-3.59;79.33;101530.67;104792;1271;73180;-70
2021/12/30 08:56:21;;;;;;;42.80;16.50;;;;;;;-3.52;79.28;101534.07;104675;1271;73093;-72
2021/12/30 08:58:50;;;;;;;51.50;19.00;;;;;;;-3.46;79.99;101533.05;104790;1270;70986;-68
2021/12/30 09:01:19;;;;;;;47.90;21.70;;;;;;;-3.59;80.23;101533.22;104647;1272;73439;-76
2021/12/30 09:03:48;;;;;;;52.00;22.20;;;;;;;-3.44;79.78;101532.36;104562;1273;62228;-77
2021/12/30 09:06:17;;;;;;;56.70;21.10;;;;;;;-3.36;78.90;101532.00;104840;1269;62101;-75
2021/12/30 09:08:47;;;;;;;53.00;22.00;;;;;;;-3.27;78.41;101531.64;104735;1271;73709;-77
2021/12/30 09:11:16;;;;;;;53.90;21.70;;;;;;;-3.34;78.69;101530.30;104722;1270;71268;-72
2021/12/30 09:13:45;;;;;;;57.90;22.20;;;;;;;-3.16;78.50;101529.39;104728;1269;68649;-75
2021/12/30 09:16:14;;;;;;;56.80;22.10;;;;;;;-3.07;78.01;101527.16;104668;1270;72317;-74
2021/12/30 09:18:43;;;;;;;57.10;23.10;;;;;;;-3.06;78.40;101538.05;104830;1269;62172;-74
2021/12/30 09:21:12;;;;;;;60.40;23.30;;;;;;;-3.06;77.97;101542.48;104550;1270;59444;-74
2021/12/30 09:23:41;;;;;;;60.50;21.70;;;;;;;-3.32;79.33;101540.51;104667;1270;72028;-74
2021/12/30 09:26:10;;;;;;;54.00;21.40;;;;;;;-3.21;79.03;101536.91;104863;1270;70616;-72
2021/12/30 09:28:39;;;;;;;68.90;25.40;;;;;;;-3.19;78.92;101532.14;104873;1269;68968;-76
2021/12/30 09:31:09;;;;;;;59.40;24.30;;;;;;;-3.22;80.05;101534.86;104608;1273;73089;-74
2021/12/30 09:33:38;;;;;;;61.80;23.20;;;;;;;-3.23;79.21;101536.91;104698;1272;60331;-76
2021/12/30 09:36:06;;;;;;;49.90;19.20;;;;;;;-3.02;78.01;101537.88;104772;1267;61851;-76
2021/12/30 09:38:35;;;;;;;47.40;19.90;;;;;;;-2.95;77.33;101540.57;104704;1271;73234;-76
2021/12/30 09:41:04;;;;;;;42.60;17.50;;;;;;;-2.89;77.45;101540.40;104925;1271;70260;-78
2021/12/30 09:43:35;;;;;;;43.70;17.20;;;;;;;-2.76;77.71;101551.08;105458;1270;67928;-77
2021/12/30 09:46:04;;;;;;;41.10;15.80;;;;;;;-2.67;77.86;101556.67;105273;1273;71630;-79
2021/12/30 09:48:33;;;;;;;41.10;16.80;;;;;;;-2.65;77.66;101556.67;104849;1270;59662;-73
2021/12/30 09:51:01;;;;;;;43.00;18.80;;;;;;;-2.65;77.43;101559.05;104728;1271;61753;-76
2021/12/30 09:53:30;;;;;;;46.70;17.60;;;;;;;-2.66;77.06;101565.19;104803;1269;72368;-72
2021/12/30 09:55:59;;;;;;;42.20;16.40;;;;;;;-2.64;77.23;101573.02;104689;1269;70349;-73
2021/12/30 09:58:29;;;;;;;43.00;18.50;;;;;;;-2.71;77.06;101577.65;104697;1272;69775;-74
2021/12/30 10:01:00;;;;;;;49.80;16.90;;;;;;;-2.65;77.76;101569.63;104852;1269;71369;-73
2021/12/30 10:03:30;;;;;;;50.70;19.40;;;;;;;-2.65;77.44;101570.48;104813;1271;60481;-72
2021/12/30 10:06:08;;;;;;;45.60;19.00;;;;;;;-2.64;77.30;101567.57;104795;1270;60478;-74
2021/12/30 10:08:42;;;;;;;44.00;18.50;;;;;;;-2.68;77.15;101575.77;104992;1270;73172;-80
2021/12/30 10:11:14;;;;;;;49.60;19.30;;;;;;;-2.74;76.72;101573.92;104838;1268;70262;-78
2021/12/30 10:13:59;;;;;;;51.80;19.90;;;;;;;-2.73;77.00;101577.50;104599;1271;69654;-74
2021/12/30 10:16:29;;;;;;;50.40;19.90;;;;;;;-2.68;76.89;101572.86;104771;1270;71974;-75
2021/12/30 10:19:05;;;;;;;69.80;27.60;;;;;;;-2.70;76.97;101566.91;104795;1271;59098;-74
2021/12/30 10:21:42;;;;;;;50.60;19.30;;;;;;;-2.57;78.32;101563.61;104820;1269;60850;-74
2021/12/30 10:24:12;;;;;;;46.60;19.00;;;;;;;-2.64;78.14;101556.14;104737;1273;72207;-74
2021/12/30 10:26:57;;;;;;;40.90;17.70;;;;;;;-2.61;76.78;101549.48;104775;1269;70291;-73
2021/12/30 10:29:27;;;;;;;44.90;17.50;;;;;;;-2.33;76.36;101558.89;104571;1271;68138;-73
2021/12/30 10:31:57;;;;;;;44.50;17.90;;;;;;;-2.28;76.12;101560.73;104842;1273;74022;-76
2021/12/30 10:34:27;;;;;;;48.50;18.90;;;;;;;-2.41;77.86;101558.23;105067;1267;61844;-72
2021/12/30 10:36:56;;;;;;;45.50;20.00;;;;;;;-2.45;77.58;101556.21;104866;1271;60309;-76
2021/12/30 10:39:30;;;;;;;53.00;20.90;;;;;;;-2.57;77.72;101546.90;104802;1271;73164;-80
2021/12/30 10:41:58;;;;;;;44.40;18.60;;;;;;;-2.71;78.23;101545.77;104983;1270;72782;-73
2021/12/30 10:44:50;;;;;;;47.50;19.90;;;;;;;-2.56;77.04;101551.15;104669;1268;69249;-73
2021/12/30 10:47:22;;;;;;;84.50;37.10;;;;;;;-2.27;76.73;101553.56;105018;1270;73803;-77
2021/12/30 10:50:11;;;;;;;47.10;18.50;;;;;;;-2.32;76.08;101549.33;104891;1268;61701;-75
2021/12/30 10:52:50;;;;;;;41.50;17.20;;;;;;;-2.24;76.17;101541.60;105105;1270;61559;-75
2021/12/30 10:55:21;;;;;;;44.80;18.70;;;;;;;-2.37;75.83;101537.40;104973;1269;74283;-75
2021/12/30 10:57:51;;;;;;;41.90;18.30;;;;;;;-2.23;75.46;101536.31;104900;1269;72914;-73
2021/12/30 11:00:38;;;;;;;43.40;19.10;;;;;;;-2.29;75.38;101534.98;104716;1271;71348;-79
2021/12/30 11:03:24;;;;;;;45.60;19.30;;;;;;;-2.37;76.11;101536.04;104852;1270;72954;-75
2021/12/30 11:06:17;;;;;;;50.90;18.40;;;;;;;-2.22;75.40;101534.25;104938;1271;61889;-73
2021/12/30 11:08:50;;;;;;;49.50;17.90;;;;;;;-2.16;74.65;101536.08;105054;1270;59338;-87
2021/12/30 11:11:28;;;;;;;44.70;18.90;;;;;;;-2.01;75.14;101539.73;104929;1271;71643;-74
2021/12/30 11:14:06;;;;;;;40.60;16.90;;;;;;;-2.34;75.03;101537.57;104945;1270;72547;-76
2021/12/30 11:16:56;;;;;;;49.50;19.50;;;;;;;-2.20;75.35;101535.60;104827;1267;71252;-77